sensor_id;sensor_type;location;lat;lon;timestamp;pressure;altitude;pressure_sealevel;temperature;humidity
11676;BME280;5894;42.768;23.404;2023-02-19T00:01:31;95961.59;;;4.84;100.00
11676;BME280;5894;42.768;23.404;2023-02-19T00:04:01;95906.53;;;4.43;100.00
11676;BME280;5894;42.768;23.404;2023-02-19T00:06:29;95944.19;;;4.53;100.00
11676;BME280;5894;42.768;23.404;2023-02-19T00:08:56;95934.47;;;4.43;100.00
11676;BME280;5894;42.768;23.404;2023-02-19T00:11:25;95942.56;;;4.47;100.00
11676;BME280;5894;42.768;23.404;2023-02-19T00:13:53;95960.34;;;4.50;100.00
11676;BME280;5894;42.768;23.404;2023-02-19T00:16:25;95941.56;;;4.53;100.00
11676;BME280;5894;42.768;23.404;2023-02-19T00:18:53;95940.78;;;4.52;100.00
11676;BME280;5894;42.768;23.404;2023-02-19T00:21:23;95910.63;;;4.29;100.00
11676;BME280;5894;42.768;23.404;2023-02-19T00:23:53;95900.09;;;4.14;100.00
11676;BME280;5894;42.768;23.404;2023-02-19T00:26:21;95870.00;;;4.01;100.00
11676;BME280;5894;42.768;23.404;2023-02-19T00:28:50;95793.13;;;3.35;100.00
11676;BME280;5894;42.768;23.404;2023-02-19T00:31:19;95893.97;;;3.93;100.00
11676;BME280;5894;42.768;23.404;2023-02-19T00:33:51;95938.06;;;4.32;100.00
11676;BME280;5894;42.768;23.404;2023-02-19T00:36:18;95930.03;;;4.43;100.00
11676;BME280;5894;42.768;23.404;2023-02-19T00:38:45;95918.50;;;4.39;100.00
11676;BME280;5894;42.768;23.404;2023-02-19T00:41:13;95875.25;;;4.06;100.00
11676;BME280;5894;42.768;23.404;2023-02-19T00:43:46;95908.84;;;4.35;100.00
11676;BME280;5894;42.768;23.404;2023-02-19T00:46:13;95907.81;;;4.41;100.00
11676;BME280;5894;42.768;23.404;2023-02-19T00:48:40;95896.91;;;4.54;100.00
11676;BME280;5894;42.768;23.404;2023-02-19T00:51:08;95883.81;;;4.44;100.00
11676;BME280;5894;42.768;23.404;2023-02-19T00:53:35;95903.22;;;4.68;100.00
11676;BME280;5894;42.768;23.404;2023-02-19T00:56:02;95858.22;;;4.41;100.00
11676;BME280;5894;42.768;23.404;2023-02-19T00:58:29;95863.50;;;4.61;100.00
11676;BME280;5894;42.768;23.404;2023-02-19T01:00:56;95912.19;;;4.83;100.00
11676;BME280;5894;42.768;23.404;2023-02-19T01:03:23;95893.09;;;4.82;100.00
11676;BME280;5894;42.768;23.404;2023-02-19T01:05:50;95910.66;;;4.92;100.00
11676;BME280;5894;42.768;23.404;2023-02-19T01:08:19;95902.25;;;4.90;100.00
11676;BME280;5894;42.768;23.404;2023-02-19T01:10:47;95870.09;;;4.79;100.00
11676;BME280;5894;42.768;23.404;2023-02-19T01:13:14;95886.38;;;4.96;100.00
11676;BME280;5894;42.768;23.404;2023-02-19T01:15:41;95844.72;;;4.64;100.00
11676;BME280;5894;42.768;23.404;2023-02-19T01:18:09;95886.91;;;4.98;100.00
11676;BME280;5894;42.768;23.404;2023-02-19T01:20:37;95883.75;;;5.01;100.00
11676;BME280;5894;42.768;23.404;2023-02-19T01:23:04;95881.13;;;5.01;100.00
11676;BME280;5894;42.768;23.404;2023-02-19T01:25:32;95885.59;;;5.06;100.00
11676;BME280;5894;42.768;23.404;2023-02-19T01:27:59;95868.84;;;5.02;100.00
11676;BME280;5894;42.768;23.404;2023-02-19T01:30:26;95878.00;;;5.09;100.00
11676;BME280;5894;42.768;23.404;2023-02-19T01:32:53;95895.81;;;5.07;100.00
11676;BME280;5894;42.768;23.404;2023-02-19T01:35:20;95845.28;;;4.82;100.00
11676;BME280;5894;42.768;23.404;2023-02-19T01:37:47;95909.66;;;5.13;100.00
11676;BME280;5894;42.768;23.404;2023-02-19T01:40:14;95913.53;;;5.00;100.00
11676;BME280;5894;42.768;23.404;2023-02-19T01:42:43;95909.00;;;4.70;100.00
11676;BME280;5894;42.768;23.404;2023-02-19T01:45:22;95925.50;;;4.76;100.00
11676;BME280;5894;42.768;23.404;2023-02-19T01:47:59;95931.72;;;4.70;100.00
11676;BME280;5894;42.768;23.404;2023-02-19T01:50:31;95925.25;;;4.83;100.00
11676;BME280;5894;42.768;23.404;2023-02-19T01:53:02;95917.09;;;4.69;100.00
11676;BME280;5894;42.768;23.404;2023-02-19T01:55:31;95906.94;;;4.77;100.00
11676;BME280;5894;42.768;23.404;2023-02-19T01:58:01;95916.03;;;4.65;100.00
11676;BME280;5894;42.768;23.404;2023-02-19T02:00:29;95903.50;;;4.67;100.00
11676;BME280;5894;42.768;23.404;2023-02-19T02:02:58;95911.91;;;4.74;100.00
11676;BME280;5894;42.768;23.404;2023-02-19T02:05:36;95824.75;;;4.33;100.00
11676;BME280;5894;42.768;23.404;2023-02-19T02:08:03;95901.75;;;4.88;100.00
11676;BME280;5894;42.768;23.404;2023-02-19T02:10:48;95894.97;;;4.87;100.00
11676;BME280;5894;42.768;23.404;2023-02-19T02:13:17;95905.66;;;4.90;100.00
11676;BME280;5894;42.768;23.404;2023-02-19T02:15:50;95910.66;;;4.92;100.00
11676;BME280;5894;42.768;23.404;2023-02-19T02:18:25;95827.38;;;4.33;100.00
11676;BME280;5894;42.768;23.404;2023-02-19T02:21:03;95899.38;;;4.76;100.00
11676;BME280;5894;42.768;23.404;2023-02-19T02:23:39;95904.41;;;4.98;100.00
11676;BME280;5894;42.768;23.404;2023-02-19T02:26:31;95897.25;;;4.78;100.00
11676;BME280;5894;42.768;23.404;2023-02-19T02:29:24;95902.78;;;4.82;100.00
11676;BME280;5894;42.768;23.404;2023-02-19T02:32:02;95911.06;;;4.68;100.00
11676;BME280;5894;42.768;23.404;2023-02-19T02:34:36;95919.53;;;4.33;100.00
11676;BME280;5894;42.768;23.404;2023-02-19T02:37:06;95895.50;;;3.89;100.00
11676;BME280;5894;42.768;23.404;2023-02-19T02:39:35;95924.41;;;3.83;100.00
11676;BME280;5894;42.768;23.404;2023-02-19T02:42:04;95918.84;;;3.74;100.00
11676;BME280;5894;42.768;23.404;2023-02-19T02:44:57;95887.31;;;3.44;100.00
11676;BME280;5894;42.768;23.404;2023-02-19T02:48:01;95939.47;;;3.76;100.00
11676;BME280;5894;42.768;23.404;2023-02-19T02:50:33;95859.94;;;3.14;100.00
11676;BME280;5894;42.768;23.404;2023-02-19T02:53:07;95917.16;;;3.58;100.00
11676;BME280;5894;42.768;23.404;2023-02-19T02:56:02;95940.31;;;3.81;100.00
11676;BME280;5894;42.768;23.404;2023-02-19T02:58:32;95883.19;;;3.48;100.00
11676;BME280;5894;42.768;23.404;2023-02-19T03:01:05;95930.69;;;3.87;100.00
11676;BME280;5894;42.768;23.404;2023-02-19T03:04:10;95936.50;;;3.94;100.00
11676;BME280;5894;42.768;23.404;2023-02-19T03:06:39;95916.59;;;3.83;100.00
11676;BME280;5894;42.768;23.404;2023-02-19T03:09:10;95916.31;;;3.84;100.00
11676;BME280;5894;42.768;23.404;2023-02-19T03:11:43;95909.50;;;3.78;100.00
11676;BME280;5894;42.768;23.404;2023-02-19T03:14:34;95940.22;;;4.03;100.00
11676;BME280;5894;42.768;23.404;2023-02-19T03:17:25;95953.75;;;4.00;100.00
11676;BME280;5894;42.768;23.404;2023-02-19T03:20:15;95955.03;;;3.97;100.00
11676;BME280;5894;42.768;23.404;2023-02-19T03:22:45;95956.44;;;4.10;100.00
11676;BME280;5894;42.768;23.404;2023-02-19T03:25:14;95956.75;;;4.14;100.00
11676;BME280;5894;42.768;23.404;2023-02-19T03:28:02;95907.69;;;3.79;100.00
11676;BME280;5894;42.768;23.404;2023-02-19T03:30:34;95968.75;;;4.15;100.00
11676;BME280;5894;42.768;23.404;2023-02-19T03:33:06;95970.53;;;4.09;100.00
11676;BME280;5894;42.768;23.404;2023-02-19T03:35:39;95978.69;;;4.18;100.00
11676;BME280;5894;42.768;23.404;2023-02-19T03:38:11;95926.56;;;3.91;100.00
11676;BME280;5894;42.768;23.404;2023-02-19T03:40:53;95858.38;;;3.45;100.00
11676;BME280;5894;42.768;23.404;2023-02-19T03:43:26;95958.84;;;4.17;100.00
11676;BME280;5894;42.768;23.404;2023-02-19T03:46:07;95980.31;;;4.29;100.00
11676;BME280;5894;42.768;23.404;2023-02-19T03:48:35;95951.78;;;4.17;100.00
11676;BME280;5894;42.768;23.404;2023-02-19T03:51:16;95971.22;;;4.31;100.00
11676;BME280;5894;42.768;23.404;2023-02-19T03:53:51;95987.19;;;4.40;100.00
11676;BME280;5894;42.768;23.404;2023-02-19T03:56:27;95925.06;;;4.05;100.00
11676;BME280;5894;42.768;23.404;2023-02-19T03:59:00;95992.72;;;4.49;100.00
11676;BME280;5894;42.768;23.404;2023-02-19T04:01:36;95928.84;;;4.19;100.00
11676;BME280;5894;42.768;23.404;2023-02-19T04:04:11;95991.22;;;4.58;100.00
11676;BME280;5894;42.768;23.404;2023-02-19T04:06:41;95958.16;;;4.31;100.00
11676;BME280;5894;42.768;23.404;2023-02-19T04:09:11;95990.16;;;4.54;100.00
11676;BME280;5894;42.768;23.404;2023-02-19T04:11:42;95984.09;;;4.43;100.00
11676;BME280;5894;42.768;23.404;2023-02-19T04:14:13;95992.22;;;4.52;100.00
11676;BME280;5894;42.768;23.404;2023-02-19T04:16:44;95988.88;;;4.56;100.00
11676;BME280;5894;42.768;23.404;2023-02-19T04:19:15;95983.72;;;4.66;100.00
11676;BME280;5894;42.768;23.404;2023-02-19T04:21:46;95969.53;;;4.57;100.00
11676;BME280;5894;42.768;23.404;2023-02-19T04:24:19;95936.25;;;4.37;100.00
11676;BME280;5894;42.768;23.404;2023-02-19T04:26:47;95993.19;;;4.77;100.00
11676;BME280;5894;42.768;23.404;2023-02-19T04:29:14;95990.56;;;4.77;100.00
11676;BME280;5894;42.768;23.404;2023-02-19T04:31:41;96005.72;;;4.80;100.00
11676;BME280;5894;42.768;23.404;2023-02-19T04:34:08;95996.84;;;4.82;100.00
11676;BME280;5894;42.768;23.404;2023-02-19T04:36:35;96013.47;;;4.65;100.00
11676;BME280;5894;42.768;23.404;2023-02-19T04:39:03;96014.78;;;4.68;100.00
11676;BME280;5894;42.768;23.404;2023-02-19T04:41:30;95993.31;;;4.61;100.00
11676;BME280;5894;42.768;23.404;2023-02-19T04:43:56;95996.50;;;4.68;100.00
11676;BME280;5894;42.768;23.404;2023-02-19T04:46:23;96009.84;;;4.71;100.00
11676;BME280;5894;42.768;23.404;2023-02-19T04:48:50;96005.88;;;4.64;100.00
11676;BME280;5894;42.768;23.404;2023-02-19T04:51:17;96008.75;;;4.67;100.00
11676;BME280;5894;42.768;23.404;2023-02-19T04:53:43;95983.06;;;4.49;100.00
11676;BME280;5894;42.768;23.404;2023-02-19T04:56:13;96007.59;;;4.85;100.00
11676;BME280;5894;42.768;23.404;2023-02-19T04:58:41;95967.44;;;4.59;100.00
11676;BME280;5894;42.768;23.404;2023-02-19T05:01:08;96016.00;;;5.02;100.00
11676;BME280;5894;42.768;23.404;2023-02-19T05:03:35;96022.31;;;5.06;100.00
11676;BME280;5894;42.768;23.404;2023-02-19T05:06:02;96019.97;;;5.10;100.00
11676;BME280;5894;42.768;23.404;2023-02-19T05:08:29;96013.41;;;5.02;100.00
11676;BME280;5894;42.768;23.404;2023-02-19T05:10:57;95920.63;;;4.42;100.00
11676;BME280;5894;42.768;23.404;2023-02-19T05:13:25;96032.81;;;5.22;100.00
11676;BME280;5894;42.768;23.404;2023-02-19T05:15:56;96031.28;;;5.26;100.00
11676;BME280;5894;42.768;23.404;2023-02-19T05:18:23;95969.75;;;4.98;100.00
11676;BME280;5894;42.768;23.404;2023-02-19T05:20:50;96011.41;;;5.30;100.00
11676;BME280;5894;42.768;23.404;2023-02-19T05:23:18;96041.28;;;5.44;100.00
11676;BME280;5894;42.768;23.404;2023-02-19T05:25:45;95980.25;;;5.13;100.00
11676;BME280;5894;42.768;23.404;2023-02-19T05:28:12;96040.03;;;5.57;100.00
11676;BME280;5894;42.768;23.404;2023-02-19T05:30:47;96019.81;;;5.42;100.00
11676;BME280;5894;42.768;23.404;2023-02-19T05:33:15;96047.91;;;5.67;100.00
11676;BME280;5894;42.768;23.404;2023-02-19T05:35:45;96052.63;;;5.75;100.00
11676;BME280;5894;42.768;23.404;2023-02-19T05:38:12;96033.75;;;5.58;100.00
11676;BME280;5894;42.768;23.404;2023-02-19T05:40:40;96007.53;;;5.37;100.00
11676;BME280;5894;42.768;23.404;2023-02-19T05:43:07;95972.16;;;5.14;100.00
11676;BME280;5894;42.768;23.404;2023-02-19T05:45:34;96045.81;;;5.69;100.00
11676;BME280;5894;42.768;23.404;2023-02-19T05:48:04;96054.72;;;5.83;100.00
11676;BME280;5894;42.768;23.404;2023-02-19T05:50:32;96061.78;;;5.77;100.00
11676;BME280;5894;42.768;23.404;2023-02-19T05:53:10;96016.94;;;5.38;100.00
11676;BME280;5894;42.768;23.404;2023-02-19T05:55:37;96066.25;;;5.77;100.00
11676;BME280;5894;42.768;23.404;2023-02-19T05:58:04;96067.00;;;5.72;100.00
11676;BME280;5894;42.768;23.404;2023-02-19T06:00:31;96065.19;;;5.78;100.00
11676;BME280;5894;42.768;23.404;2023-02-19T06:02:59;96061.28;;;5.80;100.00
11676;BME280;5894;42.768;23.404;2023-02-19T06:05:27;96080.72;;;6.00;100.00
11676;BME280;5894;42.768;23.404;2023-02-19T06:07:54;95960.47;;;5.37;100.00
11676;BME280;5894;42.768;23.404;2023-02-19T06:10:21;96025.69;;;5.84;100.00
11676;BME280;5894;42.768;23.404;2023-02-19T06:12:51;96097.78;;;6.28;100.00
11676;BME280;5894;42.768;23.404;2023-02-19T06:15:18;96076.84;;;6.38;100.00
11676;BME280;5894;42.768;23.404;2023-02-19T06:17:45;96078.94;;;6.46;100.00
11676;BME280;5894;42.768;23.404;2023-02-19T06:20:12;96100.41;;;6.48;100.00
11676;BME280;5894;42.768;23.404;2023-02-19T06:22:40;96078.94;;;6.56;100.00
11676;BME280;5894;42.768;23.404;2023-02-19T06:25:06;96069.25;;;6.51;100.00
11676;BME280;5894;42.768;23.404;2023-02-19T06:27:37;96081.53;;;6.66;100.00
11676;BME280;5894;42.768;23.404;2023-02-19T06:30:05;95963.16;;;5.93;100.00
11676;BME280;5894;42.768;23.404;2023-02-19T06:32:32;96090.72;;;6.84;100.00
11676;BME280;5894;42.768;23.404;2023-02-19T06:34:58;96099.06;;;6.96;100.00
11676;BME280;5894;42.768;23.404;2023-02-19T06:37:25;96097.25;;;7.02;100.00
11676;BME280;5894;42.768;23.404;2023-02-19T06:39:55;96097.47;;;7.10;100.00
11676;BME280;5894;42.768;23.404;2023-02-19T06:42:22;96050.06;;;6.76;100.00
11676;BME280;5894;42.768;23.404;2023-02-19T06:44:48;96046.91;;;6.89;100.00
11676;BME280;5894;42.768;23.404;2023-02-19T06:47:15;96102.41;;;7.32;100.00
11676;BME280;5894;42.768;23.404;2023-02-19T06:49:42;96107.38;;;7.38;100.00
11676;BME280;5894;42.768;23.404;2023-02-19T06:52:09;96103.66;;;7.50;100.00
11676;BME280;5894;42.768;23.404;2023-02-19T06:54:35;96103.63;;;7.60;100.00
11676;BME280;5894;42.768;23.404;2023-02-19T06:57:03;96087.91;;;7.50;100.00
11676;BME280;5894;42.768;23.404;2023-02-19T06:59:30;96116.66;;;7.80;100.00
11676;BME280;5894;42.768;23.404;2023-02-19T07:01:57;96101.94;;;7.84;100.00
11676;BME280;5894;42.768;23.404;2023-02-19T07:04:24;96115.72;;;8.10;99.94
11676;BME280;5894;42.768;23.404;2023-02-19T07:06:50;96049.44;;;7.84;98.77
11676;BME280;5894;42.768;23.404;2023-02-19T07:09:17;96106.94;;;8.30;98.35
11676;BME280;5894;42.768;23.404;2023-02-19T07:11:44;96105.59;;;8.37;97.89
11676;BME280;5894;42.768;23.404;2023-02-19T07:14:15;96110.34;;;8.40;98.68
11676;BME280;5894;42.768;23.404;2023-02-19T07:16:42;96102.84;;;8.53;97.88
11676;BME280;5894;42.768;23.404;2023-02-19T07:19:09;96096.72;;;8.67;97.76
11676;BME280;5894;42.768;23.404;2023-02-19T07:21:37;96099.75;;;8.79;96.84
11676;BME280;5894;42.768;23.404;2023-02-19T07:24:04;96105.75;;;8.85;96.94
11676;BME280;5894;42.768;23.404;2023-02-19T07:26:31;96076.78;;;8.90;94.83
11676;BME280;5894;42.768;23.404;2023-02-19T07:28:58;96079.22;;;9.10;93.54
11676;BME280;5894;42.768;23.404;2023-02-19T07:31:26;96085.47;;;9.14;93.65
11676;BME280;5894;42.768;23.404;2023-02-19T07:33:53;96083.25;;;9.27;92.09
11676;BME280;5894;42.768;23.404;2023-02-19T07:36:22;96076.03;;;9.37;91.00
11676;BME280;5894;42.768;23.404;2023-02-19T07:38:52;96060.31;;;9.32;90.45
11676;BME280;5894;42.768;23.404;2023-02-19T07:41:20;96071.66;;;9.51;90.39
11676;BME280;5894;42.768;23.404;2023-02-19T07:43:47;96079.38;;;9.67;90.78
11676;BME280;5894;42.768;23.404;2023-02-19T07:46:14;96058.88;;;9.64;89.48
11676;BME280;5894;42.768;23.404;2023-02-19T07:48:42;96078.69;;;9.80;89.36
11676;BME280;5894;42.768;23.404;2023-02-19T07:51:11;96078.03;;;9.88;88.14
11676;BME280;5894;42.768;23.404;2023-02-19T07:53:39;96076.03;;;9.80;88.62
11676;BME280;5894;42.768;23.404;2023-02-19T07:56:07;96052.47;;;9.70;88.31
11676;BME280;5894;42.768;23.404;2023-02-19T07:58:34;96090.47;;;10.06;86.27
11676;BME280;5894;42.768;23.404;2023-02-19T08:01:12;96078.78;;;10.12;90.90
11676;BME280;5894;42.768;23.404;2023-02-19T08:03:40;96082.13;;;10.18;87.25
11676;BME280;5894;42.768;23.404;2023-02-19T08:06:08;96042.59;;;9.99;85.97
11676;BME280;5894;42.768;23.404;2023-02-19T08:08:38;96100.94;;;10.30;84.58
11676;BME280;5894;42.768;23.404;2023-02-19T08:11:06;96085.06;;;10.35;83.54
11676;BME280;5894;42.768;23.404;2023-02-19T08:14:04;96077.00;;;10.45;82.14
11676;BME280;5894;42.768;23.404;2023-02-19T08:16:31;96045.03;;;10.33;81.55
11676;BME280;5894;42.768;23.404;2023-02-19T08:18:58;96078.59;;;10.60;81.47
11676;BME280;5894;42.768;23.404;2023-02-19T08:21:26;96076.41;;;10.67;79.86
11676;BME280;5894;42.768;23.404;2023-02-19T08:23:53;96072.81;;;10.77;80.27
11676;BME280;5894;42.768;23.404;2023-02-19T08:26:19;96075.34;;;10.82;78.98
11676;BME280;5894;42.768;23.404;2023-02-19T08:28:47;96072.63;;;10.87;78.20
11676;BME280;5894;42.768;23.404;2023-02-19T08:31:14;96070.78;;;11.01;76.95
11676;BME280;5894;42.768;23.404;2023-02-19T08:33:41;96065.03;;;10.99;76.88
11676;BME280;5894;42.768;23.404;2023-02-19T08:36:09;96074.25;;;11.15;76.83
11676;BME280;5894;42.768;23.404;2023-02-19T08:38:37;96071.69;;;11.24;75.13
11676;BME280;5894;42.768;23.404;2023-02-19T08:41:05;96064.66;;;11.33;73.92
11676;BME280;5894;42.768;23.404;2023-02-19T08:43:32;96074.56;;;11.41;73.32
11676;BME280;5894;42.768;23.404;2023-02-19T08:45:59;96068.66;;;11.44;71.91
11676;BME280;5894;42.768;23.404;2023-02-19T08:48:26;96030.72;;;11.26;71.97
11676;BME280;5894;42.768;23.404;2023-02-19T08:50:55;96062.91;;;11.56;70.97
11676;BME280;5894;42.768;23.404;2023-02-19T08:53:22;96058.00;;;11.63;69.79
11676;BME280;5894;42.768;23.404;2023-02-19T08:55:51;96059.66;;;11.72;69.98
11676;BME280;5894;42.768;23.404;2023-02-19T08:58:17;96062.50;;;11.76;70.08
11676;BME280;5894;42.768;23.404;2023-02-19T09:00:44;96060.56;;;11.82;69.02
11676;BME280;5894;42.768;23.404;2023-02-19T09:03:11;96053.22;;;11.92;66.91
11676;BME280;5894;42.768;23.404;2023-02-19T09:05:38;96045.34;;;12.01;66.70
11676;BME280;5894;42.768;23.404;2023-02-19T09:08:05;96040.84;;;12.01;67.00
11676;BME280;5894;42.768;23.404;2023-02-19T09:10:32;96013.56;;;11.92;66.96
11676;BME280;5894;42.768;23.404;2023-02-19T09:13:00;96022.50;;;12.05;65.73
11676;BME280;5894;42.768;23.404;2023-02-19T09:15:27;95977.44;;;11.88;65.74
11676;BME280;5894;42.768;23.404;2023-02-19T09:17:55;96014.81;;;12.17;66.32
11676;BME280;5894;42.768;23.404;2023-02-19T09:20:21;96007.88;;;12.21;65.67
11676;BME280;5894;42.768;23.404;2023-02-19T09:22:48;96009.00;;;12.29;65.72
11676;BME280;5894;42.768;23.404;2023-02-19T09:25:15;96018.56;;;12.38;66.05
11676;BME280;5894;42.768;23.404;2023-02-19T09:27:42;96010.03;;;12.41;64.67
11676;BME280;5894;42.768;23.404;2023-02-19T09:30:10;96017.53;;;12.48;65.22
11676;BME280;5894;42.768;23.404;2023-02-19T09:32:37;95989.91;;;12.32;65.20
11676;BME280;5894;42.768;23.404;2023-02-19T09:35:04;96016.03;;;12.56;66.03
11676;BME280;5894;42.768;23.404;2023-02-19T09:37:31;95990.78;;;12.49;65.76
11676;BME280;5894;42.768;23.404;2023-02-19T09:39:58;95934.91;;;12.20;65.81
11676;BME280;5894;42.768;23.404;2023-02-19T09:42:27;96005.09;;;12.79;67.16
11676;BME280;5894;42.768;23.404;2023-02-19T09:44:57;96003.59;;;12.87;66.29
11676;BME280;5894;42.768;23.404;2023-02-19T09:47:27;96001.00;;;12.96;67.41
11676;BME280;5894;42.768;23.404;2023-02-19T09:49:57;96006.63;;;13.03;67.11
11676;BME280;5894;42.768;23.404;2023-02-19T09:52:29;96001.34;;;13.11;66.13
11676;BME280;5894;42.768;23.404;2023-02-19T09:55:00;95993.78;;;13.18;66.70
11676;BME280;5894;42.768;23.404;2023-02-19T09:57:29;95980.41;;;13.23;66.00
11676;BME280;5894;42.768;23.404;2023-02-19T10:00:03;95977.00;;;13.40;67.71
11676;BME280;5894;42.768;23.404;2023-02-19T10:02:31;95973.63;;;13.48;67.00
11676;BME280;5894;42.768;23.404;2023-02-19T10:04:58;95972.38;;;13.54;65.41
11676;BME280;5894;42.768;23.404;2023-02-19T10:07:34;95963.16;;;13.60;65.09
11676;BME280;5894;42.768;23.404;2023-02-19T10:10:20;95962.88;;;13.71;64.30
11676;BME280;5894;42.768;23.404;2023-02-19T10:12:50;95897.38;;;13.37;63.73
11676;BME280;5894;42.768;23.404;2023-02-19T10:15:21;95938.56;;;13.69;64.32
11676;BME280;5894;42.768;23.404;2023-02-19T10:17:52;95944.94;;;13.76;64.70
11676;BME280;5894;42.768;23.404;2023-02-19T10:20:20;95913.94;;;13.77;63.97
11676;BME280;5894;42.768;23.404;2023-02-19T10:22:51;95927.81;;;13.91;63.60
11676;BME280;5894;42.768;23.404;2023-02-19T10:25:21;95861.38;;;13.53;62.73
11676;BME280;5894;42.768;23.404;2023-02-19T10:27:50;95916.72;;;13.98;62.79
11676;BME280;5894;42.768;23.404;2023-02-19T10:30:20;95775.41;;;13.16;62.59
11676;BME280;5894;42.768;23.404;2023-02-19T10:33:00;95885.84;;;13.93;62.48
11676;BME280;5894;42.768;23.404;2023-02-19T10:35:27;95896.44;;;14.10;62.28
11676;BME280;5894;42.768;23.404;2023-02-19T10:37:55;95899.38;;;14.17;61.64
11676;BME280;5894;42.768;23.404;2023-02-19T10:40:25;95882.53;;;14.22;61.08
11676;BME280;5894;42.768;23.404;2023-02-19T10:42:55;95876.44;;;14.21;59.48
11676;BME280;5894;42.768;23.404;2023-02-19T10:45:24;95874.84;;;14.29;58.76
11676;BME280;5894;42.768;23.404;2023-02-19T10:47:52;95874.03;;;14.37;59.70
11676;BME280;5894;42.768;23.404;2023-02-19T10:50:25;95864.06;;;14.43;59.91
11676;BME280;5894;42.768;23.404;2023-02-19T10:52:53;95864.06;;;14.43;59.82
11676;BME280;5894;42.768;23.404;2023-02-19T10:55:26;95856.88;;;14.43;59.62
11676;BME280;5894;42.768;23.404;2023-02-19T10:57:54;95856.69;;;14.48;60.47
11676;BME280;5894;42.768;23.404;2023-02-19T11:00:23;95820.19;;;14.45;59.86
11676;BME280;5894;42.768;23.404;2023-02-19T11:03:13;95844.00;;;14.92;57.47
11676;BME280;5894;42.768;23.404;2023-02-19T11:05:50;95833.78;;;15.02;58.07
11676;BME280;5894;42.768;23.404;2023-02-19T11:08:21;95832.56;;;15.21;56.88
11676;BME280;5894;42.768;23.404;2023-02-19T11:10:49;95815.66;;;15.25;56.14
11676;BME280;5894;42.768;23.404;2023-02-19T11:13:20;95815.69;;;15.37;56.53
11676;BME280;5894;42.768;23.404;2023-02-19T11:15:52;95816.06;;;15.57;56.09
11676;BME280;5894;42.768;23.404;2023-02-19T11:18:22;95814.53;;;15.68;54.96
11676;BME280;5894;42.768;23.404;2023-02-19T11:20:52;95808.69;;;15.74;54.58
11676;BME280;5894;42.768;23.404;2023-02-19T11:23:24;95769.00;;;15.57;52.93
11676;BME280;5894;42.768;23.404;2023-02-19T11:25:52;95800.31;;;15.85;52.50
11676;BME280;5894;42.768;23.404;2023-02-19T11:28:25;95795.88;;;15.89;52.43
11676;BME280;5894;42.768;23.404;2023-02-19T11:30:54;95761.03;;;15.69;53.32
11676;BME280;5894;42.768;23.404;2023-02-19T11:33:24;95769.41;;;15.92;53.14
11676;BME280;5894;42.768;23.404;2023-02-19T11:35:58;95782.06;;;16.07;52.61
11676;BME280;5894;42.768;23.404;2023-02-19T11:38:26;95784.41;;;16.09;53.22
11676;BME280;5894;42.768;23.404;2023-02-19T11:40:59;95774.75;;;16.17;53.39
11676;BME280;5894;42.768;23.404;2023-02-19T11:43:43;95743.28;;;16.06;50.64
11676;BME280;5894;42.768;23.404;2023-02-19T11:46:16;95757.59;;;16.26;48.80
11676;BME280;5894;42.768;23.404;2023-02-19T11:49:05;95753.03;;;16.27;50.58
11676;BME280;5894;42.768;23.404;2023-02-19T11:54:45;95746.69;;;16.31;49.22
11676;BME280;5894;42.768;23.404;2023-02-19T11:57:27;95736.94;;;16.23;49.18
11676;BME280;5894;42.768;23.404;2023-02-19T12:00:02;95746.16;;;16.26;49.25
11676;BME280;5894;42.768;23.404;2023-02-19T12:02:58;95737.53;;;16.29;47.40
11676;BME280;5894;42.768;23.404;2023-02-19T12:05:44;95666.91;;;15.95;47.23
11676;BME280;5894;42.768;23.404;2023-02-19T12:08:32;95715.22;;;16.45;46.89
11676;BME280;5894;42.768;23.404;2023-02-19T12:11:10;95706.91;;;16.47;46.68
11676;BME280;5894;42.768;23.404;2023-02-19T12:13:52;95705.53;;;16.53;46.93
11676;BME280;5894;42.768;23.404;2023-02-19T12:16:25;95629.66;;;16.07;46.80
11676;BME280;5894;42.768;23.404;2023-02-19T12:19:18;95697.00;;;16.60;46.99
11676;BME280;5894;42.768;23.404;2023-02-19T12:22:00;95688.25;;;16.59;45.60
11676;BME280;5894;42.768;23.404;2023-02-19T12:24:53;95685.38;;;16.64;44.88
11676;BME280;5894;42.768;23.404;2023-02-19T12:27:34;95685.16;;;16.69;46.47
11676;BME280;5894;42.768;23.404;2023-02-19T12:30:20;95672.16;;;16.68;45.61
11676;BME280;5894;42.768;23.404;2023-02-19T12:33:33;95596.81;;;16.27;44.44
11676;BME280;5894;42.768;23.404;2023-02-19T12:36:13;95671.44;;;16.83;43.43
11676;BME280;5894;42.768;23.404;2023-02-19T12:38:43;95665.78;;;16.84;44.63
11676;BME280;5894;42.768;23.404;2023-02-19T12:41:28;95624.22;;;16.68;45.14
11676;BME280;5894;42.768;23.404;2023-02-19T12:44:00;95659.31;;;16.98;44.11
11676;BME280;5894;42.768;23.404;2023-02-19T12:46:31;95625.88;;;16.72;44.92
11676;BME280;5894;42.768;23.404;2023-02-19T12:49:04;95634.31;;;17.02;45.34
11676;BME280;5894;42.768;23.404;2023-02-19T12:51:38;95629.84;;;17.06;44.58
11676;BME280;5894;42.768;23.404;2023-02-19T12:54:12;95626.25;;;17.14;43.92
11676;BME280;5894;42.768;23.404;2023-02-19T12:56:46;95482.97;;;16.21;44.19
11676;BME280;5894;42.768;23.404;2023-02-19T12:59:19;95590.91;;;17.02;44.49
11676;BME280;5894;42.768;23.404;2023-02-19T13:01:51;95618.53;;;17.25;44.28
11676;BME280;5894;42.768;23.404;2023-02-19T13:04:27;95610.38;;;17.34;44.80
11676;BME280;5894;42.768;23.404;2023-02-19T13:06:58;95611.34;;;17.41;43.03
11676;BME280;5894;42.768;23.404;2023-02-19T13:09:30;95603.78;;;17.43;43.45
11676;BME280;5894;42.768;23.404;2023-02-19T13:12:05;95601.50;;;17.45;43.88
11676;BME280;5894;42.768;23.404;2023-02-19T13:14:36;95592.16;;;17.51;43.88
11676;BME280;5894;42.768;23.404;2023-02-19T13:19:55;95576.25;;;17.71;43.49
11676;BME280;5894;42.768;23.404;2023-02-19T13:22:29;95587.63;;;17.68;42.05
11676;BME280;5894;42.768;23.404;2023-02-19T13:25:16;95550.00;;;17.57;43.16
11676;BME280;5894;42.768;23.404;2023-02-19T13:27:56;95575.72;;;17.81;41.34